Time;durP1;ratioP1;P1;durP2;ratioP2;P2;SDS_P1;SDS_P2;PMS_P1;PMS_P2;Temp;Humidity;BMP_temperature;BMP_pressure;BME280_temperature;BME280_humidity;BME280_pressure;Samples;Min_cycle;Max_cycle;Signal;HPM_P1;HPM_P2
2021/11/08 00:00:28;;;;;;;;;26.25;24.50;;;;;16.32;74.79;101217.47;146600;677;47019;-75
2021/11/08 00:03:13;;;;;;;;;22.00;21.50;;;;;16.28;74.26;101205.09;146607;571;46020;-74
2021/11/08 00:05:47;;;;;;;;;30.75;26.75;;;;;16.28;75.11;101207.72;146607;602;45020;-77
2021/11/08 00:08:21;;;;;;;;;28.50;23.25;;;;;16.28;74.80;101199.84;146607;569;46012;-74
2021/11/08 00:10:55;;;;;;;;;22.25;22.25;;;;;16.30;74.59;101207.78;146604;569;46012;-74
2021/11/08 00:13:30;;;;;;;;;23.75;23.00;;;;;16.28;74.30;101204.22;146609;579;45026;-74
2021/11/08 00:16:17;;;;;;;;;23.75;20.00;;;;;16.30;75.10;101215.63;146605;694;46016;-79
2021/11/08 00:21:46;;;;;;;;;26.25;23.25;;;;;16.28;74.59;101207.72;146608;602;46012;-79
2021/11/08 00:24:24;;;;;;;;;26.25;20.75;;;;;16.27;75.04;101199.81;146606;598;46020;-81
2021/11/08 00:26:59;;;;;;;;;24.25;20.50;;;;;16.28;74.58;101212.06;146608;594;45017;-80
2021/11/08 00:29:34;;;;;;;;;29.25;26.00;;;;;16.27;74.99;101199.81;146609;686;46012;-81
2021/11/08 00:32:09;;;;;;;;;31.25;27.75;;;;;16.25;75.16;101202.38;146605;622;46016;-80
2021/11/08 00:34:44;;;;;;;;;32.25;27.00;;;;;16.27;74.61;101199.81;146609;579;45028;-81
2021/11/08 00:37:18;;;;;;;;;29.25;25.50;;;;;16.28;74.86;101198.97;146607;564;45917;-81
2021/11/08 00:39:52;;;;;;;;;31.25;26.75;;;;;16.29;74.79;101182.44;146609;595;46020;-83
2021/11/08 00:42:29;;;;;;;;;30.00;26.25;;;;;16.34;75.07;101183.50;146606;773;46017;-81
2021/11/08 00:45:03;;;;;;;;;36.50;29.50;;;;;16.35;75.06;101174.78;146610;614;46010;-80
2021/11/08 00:47:36;;;;;;;;;33.50;27.25;;;;;16.40;75.15;101173.25;146608;565;46012;-79
2021/11/08 00:50:12;;;;;;;;;26.00;25.50;;;;;16.24;75.70;101142.16;146607;577;46021;-81
2021/11/08 00:52:48;;;;;;;;;27.00;25.25;;;;;16.42;75.37;101168.97;146607;720;46012;-81
2021/11/08 00:55:23;;;;;;;;;29.50;25.25;;;;;16.44;75.33;101169.88;146603;563;47020;-79
2021/11/08 00:57:59;;;;;;;;;24.50;23.50;;;;;16.47;75.96;101167.38;146606;622;45916;-81
2021/11/08 01:00:34;;;;;;;;;32.75;30.00;;;;;16.50;75.19;101172.72;146608;619;46010;-85
2021/11/08 01:03:09;;;;;;;;;29.00;28.25;;;;;16.54;75.39;101173.69;146605;600;46016;-77
2021/11/08 01:05:43;;;;;;;;;41.00;34.50;;;;;16.54;75.90;101182.47;146606;565;46020;-77
2021/11/08 01:08:17;;;;;;;;;41.75;33.75;;;;;16.54;75.96;101179.84;146607;679;45917;-81
2021/11/08 01:10:51;;;;;;;;;34.25;30.75;;;;;16.53;75.76;101185.91;146609;579;46012;-78
2021/11/08 01:13:24;;;;;;;;;38.00;30.75;;;;;16.51;76.42;101186.69;146607;614;46013;-78
2021/11/08 01:15:59;;;;;;;;;33.00;30.00;;;;;16.48;76.78;101176.09;146610;598;45020;-79
2021/11/08 01:18:33;;;;;;;;;33.75;29.25;;;;;16.45;76.62;101176.91;146605;630;46016;-77
2021/11/08 01:21:08;;;;;;;;;29.50;26.50;;;;;16.42;76.21;101176.81;146610;581;45021;-87
2021/11/08 01:23:42;;;;;;;;;31.25;26.25;;;;;16.39;76.59;101174.09;146604;575;46016;-83
2021/11/08 01:26:16;;;;;;;;;27.25;23.75;;;;;16.36;76.69;101164.41;146604;588;46020;-88
2021/11/08 01:28:50;;;;;;;;;32.00;28.00;;;;;16.37;76.41;101168.78;146606;710;46016;-89
2021/11/08 01:31:25;;;;;;;;;35.75;29.50;;;;;16.38;76.16;101167.03;146609;583;46012;-88
2021/11/08 01:33:59;;;;;;;;;32.50;26.75;;;;;16.41;76.83;101156.69;146604;624;46017;-90
2021/11/08 01:36:36;;;;;;;;;31.75;28.00;;;;;16.42;76.17;101150.62;146606;568;46012;-80
2021/11/08 01:39:18;;;;;;;;;31.75;27.00;;;;;16.44;76.80;101150.66;146606;596;46012;-79
2021/11/08 01:41:52;;;;;;;;;26.75;23.75;;;;;16.43;76.78;101143.66;146607;619;46021;-82
2021/11/08 01:44:29;;;;;;;;;24.50;22.50;;;;;16.36;75.49;101148.69;146605;563;46021;-79
2021/11/08 01:47:05;;;;;;;;;28.25;24.50;;;;;16.32;75.61;101140.66;146607;564;46020;-76
2021/11/08 01:49:42;;;;;;;;;25.50;21.75;;;;;16.28;75.68;101144.03;146604;582;46017;-79
2021/11/08 01:52:16;;;;;;;;;26.25;23.25;;;;;16.26;75.50;101145.69;146607;596;45020;-75
2021/11/08 01:54:50;;;;;;;;;29.50;25.75;;;;;16.26;76.37;101145.69;146606;572;46016;-73
2021/11/08 01:57:24;;;;;;;;;26.50;25.00;;;;;16.23;76.05;101145.56;146606;564;46021;-74
2021/11/08 02:00:00;;;;;;;;;31.00;26.50;;;;;16.17;75.77;101139.31;146604;616;46016;-76
2021/11/08 02:02:34;;;;;;;;;25.75;24.50;;;;;16.14;76.42;101135.72;146608;684;46020;-75
2021/11/08 02:05:09;;;;;;;;;20.75;18.75;;;;;16.07;75.26;101134.56;146605;582;46017;-79
2021/11/08 02:07:44;;;;;;;;;24.00;19.50;;;;;16.04;74.83;101133.56;146607;564;46020;-79
2021/11/08 02:10:23;;;;;;;;;21.00;19.00;;;;;15.99;74.91;101129.94;146605;615;46016;-76
2021/11/08 02:13:00;;;;;;;;;22.75;18.25;;;;;15.95;75.97;101131.56;146606;615;46023;-75
2021/11/08 02:15:36;;;;;;;;;25.25;21.75;;;;;15.91;76.08;101127.91;146606;611;46016;-75
2021/11/08 02:18:13;;;;;;;;;23.00;21.25;;;;;15.83;76.52;101129.38;146608;589;46020;-76
2021/11/08 02:20:48;;;;;;;;;26.00;24.25;;;;;15.76;76.57;101131.69;146605;590;46016;-74
2021/11/08 02:23:26;;;;;;;;;20.25;20.25;;;;;15.67;76.69;101120.09;146608;668;46012;-73
2021/11/08 02:26:03;;;;;;;;;24.25;18.50;;;;;15.59;76.89;101121.47;146605;581;46016;-73
2021/11/08 02:28:38;;;;;;;;;23.25;21.75;;;;;15.53;76.24;101121.25;146609;600;46010;-76
2021/11/08 02:31:14;;;;;;;;;24.25;22.00;;;;;15.52;76.76;101122.09;146608;590;46016;-75
2021/11/08 02:33:55;;;;;;;;;25.75;23.25;;;;;15.54;76.87;101119.53;146609;660;46020;-76
2021/11/08 02:36:30;;;;;;;;;20.00;19.00;;;;;15.55;76.95;101130.06;146604;694;46916;-75
2021/11/08 02:39:04;;;;;;;;;21.00;19.00;;;;;15.58;76.73;101131.91;146609;591;46012;-74
2021/11/08 02:41:38;;;;;;;;;26.25;23.25;;;;;15.61;76.25;101130.28;146608;593;46013;-74
2021/11/08 02:44:13;;;;;;;;;25.00;20.50;;;;;15.62;76.47;101139.88;146607;648;46010;-77
2021/11/08 02:46:46;;;;;;;;;18.50;17.75;;;;;14.74;75.40;100980.69;146606;615;46016;-76
2021/11/08 02:49:20;;;;;;;;;24.00;21.25;;;;;15.65;75.66;101142.63;146606;662;46021;-77
2021/11/08 02:52:09;;;;;;;;;25.75;23.75;;;;;15.65;75.59;101141.72;146607;622;46016;-77
2021/11/08 02:54:46;;;;;;;;;27.75;20.25;;;;;15.61;75.70;101132.00;146608;746;46020;-76
2021/11/08 02:57:23;;;;;;;;;23.00;21.25;;;;;15.58;76.23;101131.91;146605;590;46016;-82
2021/11/08 02:59:58;;;;;;;;;28.25;22.75;;;;;15.50;76.96;101128.97;146606;584;46020;-82
2021/11/08 03:02:35;;;;;;;;;30.25;27.25;;;;;15.48;76.84;101141.09;146604;570;46016;-82
2021/11/08 03:05:15;;;;;;;;;31.00;26.75;;;;;15.46;77.29;101132.31;146609;577;45021;-81
2021/11/08 03:07:48;;;;;;;;;38.25;29.75;;;;;15.49;77.98;101132.44;146604;577;46016;-82
2021/11/08 03:10:37;;;;;;;;;33.50;26.25;;;;;15.57;77.94;101133.59;146606;626;46020;-79
2021/11/08 03:13:18;;;;;;;;;34.75;29.00;;;;;15.62;78.06;101129.44;146604;588;46016;-80
2021/11/08 03:16:04;;;;;;;;;29.75;24.50;;;;;15.67;77.99;101124.44;146611;563;45020;-79
2021/11/08 03:18:43;;;;;;;;;31.75;27.50;;;;;15.72;77.45;101122.84;146605;581;46017;-80
2021/11/08 03:21:19;;;;;;;;;27.25;25.25;;;;;15.75;77.43;101124.69;146609;638;45020;-81
2021/11/08 03:23:57;;;;;;;;;31.75;27.25;;;;;15.73;77.45;101124.63;146605;658;46016;-81
2021/11/08 03:26:39;;;;;;;;;30.50;26.25;;;;;15.70;77.64;101125.44;146608;656;46021;-81
2021/11/08 03:29:13;;;;;;;;;39.25;31.25;;;;;15.66;78.42;101120.88;146604;601;46016;-82
2021/11/08 03:31:50;;;;;;;;;40.50;29.25;;;;;15.64;78.78;101112.09;146607;590;46020;-82
2021/11/08 03:34:24;;;;;;;;;27.50;23.75;;;;;15.61;78.67;101106.75;146606;603;45919;-76
2021/11/08 03:36:58;;;;;;;;;30.25;23.50;;;;;15.58;77.87;101103.16;146607;593;45020;-75
2021/11/08 03:39:32;;;;;;;;;27.25;24.75;;;;;15.55;77.63;101103.03;146606;592;46017;-76
2021/11/08 03:42:06;;;;;;;;;35.00;27.25;;;;;15.58;77.75;101104.03;146608;564;46021;-75
2021/11/08 03:44:40;;;;;;;;;28.00;24.00;;;;;15.62;77.81;101107.63;146605;607;46016;-77
2021/11/08 03:47:14;;;;;;;;;27.50;26.25;;;;;15.67;78.28;101116.59;146608;643;45030;-75
2021/11/08 03:49:48;;;;;;;;;26.75;25.50;;;;;15.72;78.24;101111.50;146605;583;46017;-74
2021/11/08 03:52:22;;;;;;;;;35.75;29.75;;;;;15.76;77.60;101109.03;146606;597;46020;-74
2021/11/08 03:54:56;;;;;;;;;34.75;30.25;;;;;15.80;78.22;101105.72;146609;670;46013;-74
2021/11/08 03:57:30;;;;;;;;;34.00;29.50;;;;;15.82;78.44;101111.00;146609;625;46010;-75
2021/11/08 04:00:04;;;;;;;;;33.75;28.75;;;;;15.84;77.53;101102.38;146607;618;46016;-75
2021/11/08 04:02:38;;;;;;;;;26.50;24.25;;;;;15.87;77.40;101099.88;146609;590;46012;-76
2021/11/08 04:05:14;;;;;;;;;36.00;30.75;;;;;15.89;76.84;101095.59;146607;573;46919;-76
2021/11/08 04:07:48;;;;;;;;;33.50;29.00;;;;;15.89;77.29;101087.75;146610;690;46020;-71
2021/11/08 04:10:24;;;;;;;;;31.00;28.25;;;;;15.90;76.77;101091.25;146605;614;46016;-75
2021/11/08 04:13:04;;;;;;;;;32.75;29.50;;;;;15.94;77.29;101098.37;146607;595;46020;-75
2021/11/08 04:15:44;;;;;;;;;34.50;30.25;;;;;15.93;76.85;101105.31;146605;583;46016;-76
2021/11/08 04:18:22;;;;;;;;;37.00;30.75;;;;;15.94;76.91;101109.72;146610;579;46010;-75
2021/11/08 04:20:59;;;;;;;;;32.25;30.00;;;;;15.97;77.06;101108.94;146607;590;46012;-75
2021/11/08 04:23:34;;;;;;;;;54.00;43.25;;;;;15.99;77.08;101116.84;146609;627;45022;-75
2021/11/08 04:26:08;;;;;;;;;48.25;38.25;;;;;15.98;77.67;101110.75;146606;619;46016;-84
2021/11/08 04:28:49;;;;;;;;;35.75;31.75;;;;;15.09;77.61;100958.50;146609;593;46020;-78
2021/11/08 04:31:24;;;;;;;;;40.00;33.50;;;;;15.99;77.11;101115.13;146609;617;46016;-77
2021/11/08 04:34:23;;;;;;;;;37.25;32.00;;;;;15.98;77.52;101115.97;146609;641;46021;-80
2021/11/08 04:40:21;;;;;;;;;42.75;35.00;;;;;15.97;77.70;101116.78;146609;665;46021;-76
2021/11/08 04:51:54;;;;;;;;;51.25;41.25;;;;;16.03;77.35;101121.34;146609;566;46020;-76
2021/11/08 05:30:06;;;;;;;;;40.25;32.25;;;;;15.84;82.08;101138.09;146607;712;46012;-72
2021/11/08 05:32:43;;;;;;;;;45.25;34.50;;;;;15.84;81.06;101146.84;146610;654;45021;-72
2021/11/08 05:35:18;;;;;;;;;39.00;32.25;;;;;15.83;82.72;101141.56;146608;580;46016;-73
2021/11/08 05:37:52;;;;;;;;;39.25;32.75;;;;;15.83;82.46;101144.19;146608;581;46013;-72
2021/11/08 05:40:30;;;;;;;;;43.50;34.00;;;;;15.84;82.30;101145.94;146605;596;46016;-73
2021/11/08 05:43:07;;;;;;;;;38.50;32.75;;;;;15.86;81.99;101146.91;146611;590;46012;-73
2021/11/08 05:45:43;;;;;;;;;37.00;33.00;;;;;15.88;81.90;101150.44;146605;580;47018;-83
2021/11/08 05:48:17;;;;;;;;;45.25;36.75;;;;;15.94;81.78;101158.50;146607;575;46020;-76
2021/11/08 05:50:51;;;;;;;;;48.25;38.25;;;;;16.02;80.83;101162.31;146605;569;46016;-77
2021/11/08 05:53:25;;;;;;;;;43.75;35.25;;;;;16.12;81.91;101164.41;146607;611;46010;-74
2021/11/08 05:56:22;;;;;;;;;50.00;38.50;;;;;16.20;81.42;101169.94;146604;605;46016;-75
2021/11/08 06:50:59;;;;;;;;;31.25;29.00;;;;;16.84;77.83;101192.22;146608;578;46010;-73
2021/11/08 06:53:33;;;;;;;;;39.00;33.50;;;;;16.87;76.84;101189.69;146606;600;46012;-74
2021/11/08 06:56:34;;;;;;;;;;;;;;;;;;;;;
2021/11/08 06:59:17;;;;;;;;;36.00;31.75;;;;;16.53;77.00;101109.97;146606;595;46012;-75
2021/11/08 07:02:01;;;;;;;;;42.25;34.50;;;;;17.07;77.04;101180.78;146611;625;46010;-75
2021/11/08 07:04:43;;;;;;;;;39.00;32.50;;;;;17.18;76.90;101178.47;146607;563;45020;-72
2021/11/08 07:07:37;;;;;;;;;48.25;37.50;;;;;17.31;77.72;101161.41;146610;570;45021;-72
2021/11/08 07:10:20;;;;;;;;;45.75;36.50;;;;;17.61;76.95;101161.44;146604;615;46919;-77
2021/11/08 07:13:06;;;;;;;;;44.00;36.00;;;;;17.95;76.32;101150.22;146608;634;45028;-76
2021/11/08 07:15:52;;;;;;;;;44.00;35.50;;;;;18.36;75.67;101155.69;146603;618;46016;-74
2021/11/08 07:18:36;;;;;;;;;42.00;33.75;;;;;18.79;74.78;101146.31;146605;589;46012;-76
2021/11/08 07:21:17;;;;;;;;;42.00;35.25;;;;;19.22;72.78;101144.72;146608;601;46020;-75
2021/11/08 07:23:55;;;;;;;;;46.25;37.50;;;;;19.49;72.17;101152.31;146606;601;46021;-74
2021/11/08 07:26:37;;;;;;;;;44.00;35.50;;;;;19.74;71.05;101147.59;146603;580;46012;-74
2021/11/08 07:29:14;;;;;;;;;51.50;39.75;;;;;19.92;69.89;101150.59;146607;565;46011;-74
2021/11/08 07:31:53;;;;;;;;;52.00;38.75;;;;;20.02;69.89;101149.03;146605;576;46012;-74
2021/11/08 07:34:38;;;;;;;;;46.75;38.25;;;;;20.10;69.18;101150.06;146608;580;46012;-75
2021/11/08 07:37:16;;;;;;;;;53.75;39.75;;;;;20.16;69.82;101163.34;146606;596;45016;-74
2021/11/08 07:40:07;;;;;;;;;48.75;35.75;;;;;20.17;69.41;101170.38;146606;579;46020;-75
2021/11/08 07:43:14;;;;;;;;;50.00;39.25;;;;;20.10;69.21;101168.50;146603;616;46016;-74
2021/11/08 07:45:50;;;;;;;;;44.50;35.75;;;;;20.03;69.40;101159.59;146609;576;45020;-74
2021/11/08 07:48:47;;;;;;;;;49.75;38.25;;;;;19.97;69.60;101171.72;146603;606;47918;-74
2021/11/08 07:51:37;;;;;;;;;51.25;39.00;;;;;19.96;69.64;101167.34;146608;610;46021;-74
2021/11/08 07:54:12;;;;;;;;;48.00;38.50;;;;;19.94;70.00;101169.94;146603;616;46016;-75
2021/11/08 07:57:15;;;;;;;;;52.00;40.75;;;;;19.93;69.99;101169.91;146605;707;46020;-74
2021/11/08 07:59:56;;;;;;;;;47.25;35.75;;;;;19.88;70.15;101167.19;146600;671;47918;-74
2021/11/08 08:06:29;;;;;;;;;49.50;40.50;;;;;19.76;70.49;101159.94;146606;575;46916;-73
2021/11/08 08:09:08;;;;;;;;;48.00;39.75;;;;;19.71;71.05;101153.66;146604;563;46021;-74
2021/11/08 08:11:42;;;;;;;;;48.00;39.50;;;;;19.73;70.49;101162.50;146605;616;46016;-73
2021/11/08 08:14:30;;;;;;;;;50.00;39.00;;;;;19.77;70.88;101150.28;146606;572;46021;-73
2021/11/08 08:17:08;;;;;;;;;51.75;39.25;;;;;19.79;70.92;101153.84;146605;570;46012;-75
2021/11/08 08:19:43;;;;;;;;;49.50;39.75;;;;;19.81;70.63;101158.28;146611;609;46012;-74
2021/11/08 08:22:17;;;;;;;;;51.50;40.50;;;;;19.94;70.58;101155.91;146604;649;46017;-72
2021/11/08 08:24:51;;;;;;;;;51.50;39.25;;;;;20.05;69.91;101144.72;146609;746;46012;-73
2021/11/08 08:27:24;;;;;;;;;52.00;40.50;;;;;20.16;69.76;101151.94;146608;593;46012;-73
2021/11/08 08:29:59;;;;;;;;;49.50;41.00;;;;;20.23;70.16;101154.72;146608;645;45021;-72
2021/11/08 08:32:32;;;;;;;;;51.00;42.00;;;;;20.32;70.07;101161.00;146604;585;46016;-73
2021/11/08 08:35:08;;;;;;;;;50.50;41.50;;;;;20.36;69.82;101157.56;146606;578;46020;-74
2021/11/08 08:37:41;;;;;;;;;51.50;41.00;;;;;20.40;69.53;101154.12;146603;635;46017;-74
2021/11/08 08:40:17;;;;;;;;;50.75;39.25;;;;;20.25;69.46;101126.66;146607;611;46020;-74
2021/11/08 08:42:50;;;;;;;;;49.75;38.50;;;;;20.28;68.96;101153.06;146606;775;46020;-74
2021/11/08 08:45:24;;;;;;;;;47.25;37.00;;;;;20.20;70.02;101152.00;146606;565;46021;-76
2021/11/08 08:47:58;;;;;;;;;50.75;39.50;;;;;20.18;70.31;101152.84;146605;576;46016;-77
2021/11/08 08:50:32;;;;;;;;;46.50;36.75;;;;;20.26;70.85;101148.63;146608;580;46020;-76
2021/11/08 08:53:07;;;;;;;;;48.25;38.25;;;;;20.39;69.99;101139.19;146606;655;46016;-77
2021/11/08 08:55:45;;;;;;;;;49.75;39.75;;;;;20.48;69.68;101139.34;146608;586;46010;-78
2021/11/08 08:58:19;;;;;;;;;49.25;38.00;;;;;20.58;69.92;101136.03;146608;622;46013;-74
2021/11/08 09:00:54;;;;;;;;;45.50;38.50;;;;;20.77;69.59;101138.09;146605;575;46021;-75
2021/11/08 09:07:16;;;;;;;;;44.50;36.00;;;;;21.20;68.63;101122.94;146607;629;46010;-76
2021/11/08 09:09:50;;;;;;;;;46.00;33.25;;;;;21.30;67.95;101115.16;146606;601;45916;-75
2021/11/08 09:12:23;;;;;;;;;45.50;35.50;;;;;21.38;66.15;101108.28;146611;610;45027;-75
2021/11/08 09:14:57;;;;;;;;;44.25;36.00;;;;;21.44;66.94;101105.72;146609;693;46012;-75
2021/11/08 09:17:31;;;;;;;;;47.25;36.50;;;;;21.52;67.03;101105.81;146610;601;45020;-75
2021/11/08 09:20:05;;;;;;;;;43.50;35.00;;;;;21.73;67.03;101111.34;146604;592;46016;-75
2021/11/08 09:22:42;;;;;;;;;42.50;33.75;;;;;21.96;67.12;101108.94;146607;656;46021;-77
2021/11/08 09:25:19;;;;;;;;;44.00;35.00;;;;;22.18;65.66;101103.94;146605;587;46016;-78
2021/11/08 09:28:10;;;;;;;;;47.75;36.75;;;;;22.33;65.45;101101.44;146606;588;46021;-76
2021/11/08 09:30:58;;;;;;;;;40.50;34.75;;;;;22.43;65.15;101100.66;146604;574;47019;-78
2021/11/08 09:33:33;;;;;;;;;38.50;33.00;;;;;22.50;64.69;101105.13;146606;582;46022;-77
2021/11/08 09:36:09;;;;;;;;;46.00;38.00;;;;;22.35;63.94;101066.22;146607;584;45914;-79
2021/11/08 09:38:56;;;;;;;;;45.75;36.50;;;;;22.56;64.18;101105.16;146609;640;45020;-76
2021/11/08 09:41:36;;;;;;;;;47.00;37.00;;;;;22.62;64.43;101099.06;146607;617;46016;-76
2021/11/08 09:44:11;;;;;;;;;43.50;35.50;;;;;22.68;63.68;101104.37;146606;575;46020;-78
2021/11/08 09:46:45;;;;;;;;;35.25;32.00;;;;;22.71;63.23;101095.56;146605;604;46016;-77
2021/11/08 09:49:23;;;;;;;;;42.00;33.75;;;;;22.70;64.24;101092.06;146610;625;46010;-76
2021/11/08 09:51:59;;;;;;;;;43.00;34.25;;;;;22.70;63.44;101092.06;146603;619;47914;-78
2021/11/08 09:54:40;;;;;;;;;45.00;35.00;;;;;22.58;63.63;101086.66;146607;577;46020;-76
2021/11/08 09:57:16;;;;;;;;;48.75;38.00;;;;;22.42;63.37;101098.00;146603;596;47914;-76
2021/11/08 09:59:51;;;;;;;;;39.75;33.25;;;;;22.28;64.17;101097.87;146606;656;46020;-76
2021/11/08 10:02:25;;;;;;;;;41.00;33.75;;;;;22.12;64.09;101089.78;146606;563;46016;-77
2021/11/08 10:04:59;;;;;;;;;43.75;35.25;;;;;21.99;64.89;101093.12;146612;570;45020;-77
2021/11/08 10:07:34;;;;;;;;;42.75;34.75;;;;;21.85;63.86;101081.56;146607;610;46012;-77
2021/11/08 10:10:08;;;;;;;;;42.75;34.50;;;;;21.91;65.19;101076.34;146609;669;46012;-77
2021/11/08 10:12:42;;;;;;;;;38.25;33.25;;;;;22.03;65.95;101073.84;146607;595;45017;-77
2021/11/08 10:15:16;;;;;;;;;41.50;33.75;;;;;22.11;63.75;101061.56;146607;596;46020;-77
2021/11/08 10:17:50;;;;;;;;;41.25;34.25;;;;;21.94;64.41;101035.91;146603;609;47018;-77
2021/11/08 10:20:42;;;;;;;;;42.25;33.50;;;;;22.03;65.83;101057.13;146610;564;45020;-77
2021/11/08 10:23:19;;;;;;;;;41.25;35.25;;;;;22.03;65.79;101051.84;146603;604;46016;-77
2021/11/08 10:25:53;;;;;;;;;41.50;34.25;;;;;22.03;65.10;101042.16;146607;569;46010;-77
2021/11/08 10:28:30;;;;;;;;;41.50;35.75;;;;;22.00;65.44;101031.56;146605;576;46011;-79
2021/11/08 10:31:10;;;;;;;;;43.50;32.25;;;;;21.89;64.34;101017.38;146608;585;46020;-77
2021/11/08 10:33:46;;;;;;;;;41.00;33.25;;;;;21.86;64.68;101022.59;146604;605;46016;-77
2021/11/08 10:36:23;;;;;;;;;45.00;34.50;;;;;21.72;65.85;101026.87;146608;591;46020;-77
2021/11/08 10:39:01;;;;;;;;;43.75;35.50;;;;;21.56;65.92;101005.59;146609;584;45016;-77
2021/11/08 10:41:38;;;;;;;;;39.25;31.25;;;;;21.59;66.63;101016.19;146608;570;46012;-77
2021/11/08 10:44:24;;;;;;;;;41.00;33.75;;;;;21.55;66.68;101014.38;146602;632;46016;-77
2021/11/08 10:47:04;;;;;;;;;43.75;34.25;;;;;21.50;66.32;101013.47;146612;583;45020;-77
2021/11/08 10:49:42;;;;;;;;;44.50;33.50;;;;;21.49;66.46;101016.94;146605;566;46017;-76
2021/11/08 10:52:19;;;;;;;;;42.50;33.75;;;;;21.49;66.77;101014.31;146607;743;46020;-76
2021/11/08 10:54:56;;;;;;;;;44.50;35.50;;;;;21.55;66.24;101002.94;146605;692;46016;-79
2021/11/08 10:57:32;;;;;;;;;39.75;31.50;;;;;21.73;66.25;101007.53;146609;595;45021;-76
2021/11/08 11:00:17;;;;;;;;;39.00;32.00;;;;;21.96;66.16;101005.97;146607;622;46018;-77
2021/11/08 11:02:50;;;;;;;;;41.75;33.00;;;;;22.14;65.17;101005.25;146606;614;46020;-76
2021/11/08 11:05:24;;;;;;;;;42.25;32.50;;;;;22.26;64.91;100997.47;146609;576;46016;-76
2021/11/08 11:08:07;;;;;;;;;36.50;30.75;;;;;22.36;64.51;101004.59;146607;586;46020;-77
2021/11/08 11:10:45;;;;;;;;;41.00;32.25;;;;;22.51;63.36;100995.88;146604;661;46017;-76
2021/11/08 11:13:24;;;;;;;;;35.00;31.75;;;;;22.66;63.42;100994.22;146607;590;46021;-74
2021/11/08 11:16:04;;;;;;;;;35.75;32.00;;;;;22.82;63.16;100983.75;146603;569;47914;-71
2021/11/08 11:18:41;;;;;;;;;40.75;32.25;;;;;23.12;61.64;100995.38;146606;565;46021;-73
2021/11/08 11:21:23;;;;;;;;;40.25;31.50;;;;;23.24;61.33;100994.53;146605;653;46017;-74
2021/11/08 11:24:06;;;;;;;;;39.50;32.25;;;;;23.16;60.39;100997.16;146607;626;46020;-71
2021/11/08 11:26:53;;;;;;;;;34.25;30.50;;;;;22.83;61.55;100988.16;146604;615;46017;-71
2021/11/08 11:29:33;;;;;;;;;37.50;30.75;;;;;22.60;63.52;100995.06;146607;634;46020;-71
2021/11/08 11:32:08;;;;;;;;;33.25;29.75;;;;;22.49;63.10;100991.47;146606;583;46914;-71
2021/11/08 11:34:44;;;;;;;;;33.00;28.25;;;;;22.39;63.87;100977.31;146607;598;46021;-71
2021/11/08 11:37:23;;;;;;;;;25.50;25.25;;;;;22.33;63.93;100987.84;146604;606;47020;-70
2021/11/08 11:40:14;;;;;;;;;29.50;29.25;;;;;22.34;62.38;100987.84;146606;572;46014;-72
2021/11/08 11:43:08;;;;;;;;;36.00;30.25;;;;;22.35;64.32;100988.75;146604;569;46016;-71
2021/11/08 11:45:53;;;;;;;;;36.00;30.75;;;;;22.35;62.18;100989.63;146608;601;45020;-73
2021/11/08 11:48:31;;;;;;;;;33.00;30.00;;;;;22.20;63.92;100967.50;146605;575;46017;-78
2021/11/08 11:51:05;;;;;;;;;34.50;31.75;;;;;22.29;63.93;100986.94;146607;579;46020;-74
2021/11/08 11:53:40;;;;;;;;;35.50;31.25;;;;;22.27;63.79;100995.72;146603;660;46016;-71
2021/11/08 11:56:15;;;;;;;;;33.25;26.75;;;;;22.22;63.33;100986.88;146609;580;46021;-72
2021/11/08 11:58:50;;;;;;;;;36.25;31.00;;;;;22.18;64.22;100982.44;146604;569;46016;-75
2021/11/08 12:01:27;;;;;;;;;30.25;28.00;;;;;22.11;63.59;100973.53;146607;603;46020;-76
2021/11/08 12:04:01;;;;;;;;;36.50;30.75;;;;;22.26;64.74;100988.66;146607;571;46017;-75
2021/11/08 12:06:38;;;;;;;;;27.00;27.00;;;;;22.43;64.08;100988.78;146609;589;45020;-72
2021/11/08 12:09:20;;;;;;;;;29.75;28.75;;;;;22.55;63.03;100987.13;146606;605;47018;-75
2021/11/08 12:11:56;;;;;;;;;30.75;28.50;;;;;22.60;62.56;100985.38;146608;569;46010;-73
2021/11/08 12:14:33;;;;;;;;;32.50;28.50;;;;;22.65;62.64;100981.88;146607;661;46020;-72
2021/11/08 12:17:19;;;;;;;;;36.00;31.00;;;;;22.60;62.17;100973.94;146607;616;45022;-74
2021/11/08 12:20:10;;;;;;;;;30.75;27.25;;;;;22.64;62.83;100972.19;146605;737;46915;-76
2021/11/08 12:22:46;;;;;;;;;33.00;29.75;;;;;22.68;61.73;100963.38;146607;635;46020;-72
2021/11/08 12:25:27;;;;;;;;;38.25;32.50;;;;;22.74;61.66;100963.41;146607;616;46020;-74
2021/11/08 12:28:23;;;;;;;;;33.00;29.50;;;;;22.87;63.40;100965.28;146608;569;46010;-75
2021/11/08 12:31:02;;;;;;;;;36.00;31.25;;;;;22.88;59.66;100945.87;146607;563;46012;-74
2021/11/08 12:33:42;;;;;;;;;34.50;28.75;;;;;22.92;62.18;100931.78;146609;576;46012;-74
2021/11/08 12:36:22;;;;;;;;;35.75;29.00;;;;;22.97;60.41;100935.37;146606;593;46014;-75
2021/11/08 12:39:03;;;;;;;;;35.50;30.75;;;;;22.95;59.73;100936.22;146608;569;46020;-75
2021/11/08 12:41:50;;;;;;;;;31.00;28.00;;;;;22.88;62.85;100939.72;146606;672;46016;-74
2021/11/08 12:44:35;;;;;;;;;29.50;26.75;;;;;22.89;61.60;100950.28;146610;585;46010;-76
2021/11/08 12:47:19;;;;;;;;;32.00;30.00;;;;;22.97;62.05;100939.78;146607;619;46012;-75
2021/11/08 12:49:59;;;;;;;;;32.25;28.50;;;;;23.09;62.35;100955.69;146608;596;46021;-75
2021/11/08 12:52:35;;;;;;;;;30.25;29.00;;;;;23.22;62.11;100951.31;146605;569;46016;-75
2021/11/08 12:55:15;;;;;;;;;31.25;26.75;;;;;23.41;62.47;100950.50;146608;598;46021;-75
2021/11/08 12:57:58;;;;;;;;;35.50;31.50;;;;;23.65;61.72;100954.06;146604;612;47020;-75
2021/11/08 13:00:32;;;;;;;;;32.25;29.75;;;;;23.87;59.45;100961.19;146606;723;46918;-76
2021/11/08 13:03:16;;;;;;;;;37.00;30.75;;;;;23.90;59.13;100961.19;146605;603;46017;-76
2021/11/08 13:05:54;;;;;;;;;34.00;29.25;;;;;23.77;58.24;100951.47;146606;630;46020;-75
2021/11/08 13:08:30;;;;;;;;;28.25;26.50;;;;;23.63;58.88;100943.47;146603;581;46016;-75
2021/11/08 13:11:11;;;;;;;;;32.75;26.25;;;;;23.43;59.13;100945.22;146610;622;46020;-77
2021/11/08 13:13:58;;;;;;;;;31.00;29.00;;;;;23.19;58.39;100951.31;146604;603;47912;-76
2021/11/08 13:16:42;;;;;;;;;33.25;28.75;;;;;23.04;61.38;100960.06;146608;595;46010;-75
2021/11/08 13:19:19;;;;;;;;;29.75;29.00;;;;;23.03;61.14;100969.78;146606;642;46012;-75
2021/11/08 13:21:53;;;;;;;;;29.25;26.75;;;;;22.99;61.34;100962.72;146607;577;46020;-75
2021/11/08 13:24:30;;;;;;;;;31.50;28.25;;;;;23.01;61.58;100965.34;146606;608;45912;-76
2021/11/08 13:27:04;;;;;;;;;30.50;28.25;;;;;23.09;59.97;100963.63;146607;600;46020;-77
2021/11/08 13:29:40;;;;;;;;;34.25;29.25;;;;;23.17;62.04;100963.63;146603;685;46016;-77
2021/11/08 13:32:17;;;;;;;;;30.00;27.00;;;;;23.21;61.06;100968.09;146606;583;46021;-76
2021/11/08 13:34:52;;;;;;;;;30.75;28.00;;;;;23.21;59.29;100961.03;146606;648;46016;-75
2021/11/08 13:37:36;;;;;;;;;29.00;28.00;;;;;23.05;60.70;100965.38;146609;573;46021;-77
2021/11/08 13:40:24;;;;;;;;;32.50;29.00;;;;;22.85;61.75;100956.44;146606;679;46020;-76
2021/11/08 13:43:08;;;;;;;;;33.50;28.75;;;;;22.73;62.34;100961.66;146608;618;46020;-76
2021/11/08 13:45:50;;;;;;;;;17.00;10.25;;;;;22.57;61.05;100961.56;146604;652;46016;-77
2021/11/08 13:48:43;;;;;;;;;29.50;26.00;;;;;22.41;63.00;100954.44;146608;618;46020;-76